createdAt,value
2022-12-16T00:00:43.206Z,14.8
2022-12-16T00:01:46.065Z,14.9
2022-12-16T00:02:48.947Z,14.9
2022-12-16T00:03:52.462Z,14.8
2022-12-16T00:04:57.930Z,14.9
2022-12-16T00:06:00.133Z,15
2022-12-16T00:07:02.372Z,14.9
2022-12-16T00:08:04.661Z,14.9
2022-12-16T00:09:06.567Z,14.9
2022-12-16T00:10:09.708Z,14.8
2022-12-16T00:11:12.187Z,14.9
2022-12-16T00:12:14.674Z,14.8
2022-12-16T00:13:16.876Z,14.9
2022-12-16T00:14:19.373Z,15.1
2022-12-16T00:15:21.886Z,14.9
2022-12-16T00:16:23.947Z,15
2022-12-16T00:17:26.769Z,15
2022-12-16T00:18:29.261Z,15.1
2022-12-16T00:19:31.462Z,15
2022-12-16T00:20:33.412Z,15.1
2022-12-16T00:21:35.619Z,15
2022-12-16T00:22:37.840Z,14.8
2022-12-16T00:23:39.757Z,15.1
2022-12-16T00:24:41.948Z,14.8
2022-12-16T00:25:44.440Z,15
2022-12-16T00:26:46.904Z,14.9
2022-12-16T00:27:49.110Z,15.1
2022-12-16T00:28:55.140Z,15
2022-12-16T00:29:57.647Z,14.9
2022-12-16T00:31:00.144Z,15
2022-12-16T00:32:02.921Z,15.1
2022-12-16T00:33:05.841Z,15
2022-12-16T00:34:08.413Z,15.1
2022-12-16T00:35:10.942Z,15.2
2022-12-16T00:36:13.144Z,15.1
2022-12-16T00:37:15.357Z,15.2
2022-12-16T00:38:17.590Z,15.2
2022-12-16T00:39:19.815Z,15
2022-12-16T00:40:22.285Z,15.1
2022-12-16T00:41:24.790Z,15.1
2022-12-16T00:42:26.995Z,15.1
2022-12-16T00:43:29.634Z,15.2
2022-12-16T00:44:34.317Z,15.2
2022-12-16T00:45:36.924Z,15.1
2022-12-16T00:46:39.677Z,15.2
2022-12-16T00:48:46.881Z,15.2
2022-12-16T00:49:49.130Z,15.1
2022-12-16T00:50:52.421Z,15.1
2022-12-16T00:51:57.887Z,15
2022-12-16T00:53:00.373Z,15.1
2022-12-16T00:54:02.610Z,15.1
2022-12-16T00:55:05.091Z,15.2
2022-12-16T00:56:07.585Z,15.2
2022-12-16T00:57:10.229Z,15.1
2022-12-16T00:58:12.712Z,15
2022-12-16T00:59:14.635Z,15.2
2022-12-16T01:00:16.853Z,15.2
2022-12-16T01:01:19.140Z,15.2
2022-12-16T01:02:22.868Z,15.2
2022-12-16T01:03:25.951Z,15.2
2022-12-16T01:04:28.866Z,15.2
2022-12-16T01:05:31.476Z,15.2
2022-12-16T01:06:33.975Z,15.2
2022-12-16T01:07:36.190Z,15.2
2022-12-16T01:08:38.126Z,15.2
2022-12-16T01:09:40.347Z,15.2
2022-12-16T01:10:42.566Z,15.3
2022-12-16T01:11:44.756Z,15.2
2022-12-16T01:12:47.243Z,15.2
2022-12-16T01:13:48.904Z,15.2
2022-12-16T01:14:52.907Z,15.2
2022-12-16T01:15:57.085Z,15.2
2022-12-16T01:16:59.882Z,15.1
2022-12-16T01:18:02.365Z,15.2
2022-12-16T01:19:04.284Z,15.2
2022-12-16T01:20:06.764Z,15.2
2022-12-16T01:21:09.292Z,15.2
2022-12-16T01:22:11.774Z,15.2
2022-12-16T01:23:14.036Z,15.2
2022-12-16T01:24:16.314Z,15.2
2022-12-16T01:25:18.835Z,15.2
2022-12-16T01:26:21.330Z,15.2
2022-12-16T01:27:23.824Z,15.2
2022-12-16T01:28:26.017Z,15.2
2022-12-16T01:29:28.497Z,15.2
2022-12-16T01:30:30.691Z,15.3
2022-12-16T01:31:33.407Z,15.2
2022-12-16T01:32:35.887Z,15.3
2022-12-16T01:33:38.097Z,15.3
2022-12-16T01:34:40.570Z,15.2
2022-12-16T01:36:48.028Z,15.2
2022-12-16T01:37:51.477Z,15.2
2022-12-16T01:38:57.656Z,15.3
2022-12-16T01:39:59.878Z,15.3
2022-12-16T01:41:02.405Z,15.2
2022-12-16T01:42:04.314Z,15.2
2022-12-16T01:43:06.522Z,15.2
2022-12-16T01:44:09.467Z,15.2
2022-12-16T01:45:12.051Z,15.2
2022-12-16T01:46:14.094Z,15.2
2022-12-16T01:47:16.330Z,15.3
2022-12-16T01:48:18.552Z,15.3
2022-12-16T01:49:21.100Z,15.2
2022-12-16T01:50:23.501Z,15.3
2022-12-16T01:51:25.421Z,15.2
2022-12-16T01:52:27.901Z,15.2
2022-12-16T01:53:31.274Z,15.2
2022-12-16T01:54:35.659Z,15.3
2022-12-16T01:55:37.869Z,15.3
2022-12-16T01:56:40.432Z,15.4
2022-12-16T01:57:42.639Z,15.3
2022-12-16T01:58:44.845Z,15.2
2022-12-16T01:59:47.065Z,15.3
2022-12-16T02:00:49.621Z,15.2
2022-12-16T02:01:58.072Z,15.4
2022-12-16T02:03:01.591Z,15.2
2022-12-16T02:04:04.390Z,15.3
2022-12-16T02:05:06.629Z,15.2
2022-12-16T02:06:09.187Z,15.3
2022-12-16T02:07:11.666Z,15.2
2022-12-16T02:08:14.149Z,15.3
2022-12-16T02:09:16.387Z,15.3
2022-12-16T02:10:18.892Z,15.3
2022-12-16T02:11:21.452Z,15.3
2022-12-16T02:12:23.976Z,15.3
2022-12-16T02:13:26.198Z,15.3
2022-12-16T02:14:28.701Z,15.2
2022-12-16T02:15:31.183Z,15.3
2022-12-16T02:16:33.548Z,15.4
2022-12-16T02:17:35.757Z,15.3
2022-12-16T02:18:38.238Z,15.2
2022-12-16T02:19:40.773Z,15.3
2022-12-16T02:20:43.288Z,15.3
2022-12-16T02:21:45.756Z,15.3
2022-12-16T02:22:48.264Z,15.3
2022-12-16T02:23:52.354Z,15.4
2022-12-16T02:24:56.405Z,15.3
2022-12-16T02:25:58.606Z,15.3
2022-12-16T02:27:00.801Z,15.3
2022-12-16T02:28:02.721Z,15.2
2022-12-16T02:29:04.924Z,15.2
2022-12-16T02:30:06.854Z,15.4
2022-12-16T02:31:10.571Z,15.4
2022-12-16T02:32:13.168Z,15.3
2022-12-16T02:33:15.353Z,15.2
2022-12-16T02:34:17.830Z,15.3
2022-12-16T02:35:20.336Z,15.3
2022-12-16T02:36:22.616Z,15.3
2022-12-16T02:37:25.106Z,15.3
2022-12-16T02:38:27.294Z,15.3
2022-12-16T02:39:29.490Z,15.3
2022-12-16T02:40:32.009Z,15.4
2022-12-16T02:41:34.483Z,15.3
2022-12-16T02:42:36.684Z,15.4
2022-12-16T02:43:39.189Z,15.4
2022-12-16T02:44:41.669Z,15.3
2022-12-16T02:45:43.957Z,15.3
2022-12-16T02:46:46.660Z,15.3
2022-12-16T02:47:49.142Z,15.4
2022-12-16T02:48:51.319Z,15.3
2022-12-16T02:49:53.824Z,15.3
2022-12-16T02:50:56.319Z,15.5
2022-12-16T02:51:58.544Z,15.4
2022-12-16T02:53:01.018Z,15.5
2022-12-16T02:54:03.229Z,15.3
2022-12-16T02:55:05.437Z,15.4
2022-12-16T02:56:07.973Z,15.3
2022-12-16T02:57:10.461Z,15.3
2022-12-16T02:58:12.934Z,15.3
2022-12-16T02:59:14.885Z,15.3
2022-12-16T03:00:17.090Z,15.3
2022-12-16T03:01:19.554Z,15.4
2022-12-16T03:02:23.164Z,15.4
2022-12-16T03:03:26.595Z,15.4
2022-12-16T03:04:29.413Z,15.5
2022-12-16T03:05:31.930Z,15.4
2022-12-16T03:06:34.451Z,15.4
2022-12-16T03:07:36.956Z,15.4
2022-12-16T03:08:39.162Z,15.5
2022-12-16T03:09:41.687Z,15.4
2022-12-16T03:10:44.159Z,15.5
2022-12-16T03:11:46.689Z,15.4
2022-12-16T03:12:49.165Z,15.3
2022-12-16T03:13:51.076Z,15.5
2022-12-16T03:14:53.578Z,15.4
2022-12-16T03:15:56.069Z,15.5
2022-12-16T03:16:58.443Z,15.4
2022-12-16T03:18:01.347Z,15.4
2022-12-16T03:19:03.530Z,15.4
2022-12-16T03:20:06.012Z,15.5
2022-12-16T03:21:08.216Z,15.2
2022-12-16T03:22:10.737Z,15.2
2022-12-16T03:23:12.667Z,15.3
2022-12-16T03:24:14.879Z,15.4
2022-12-16T03:25:17.165Z,15.4
2022-12-16T03:26:19.360Z,15.5
2022-12-16T03:27:21.903Z,15.4
2022-12-16T03:28:24.388Z,15.3
2022-12-16T03:29:26.588Z,15.4
2022-12-16T03:30:29.254Z,15.4
2022-12-16T03:31:31.642Z,15.4
2022-12-16T03:32:33.301Z,15.4
2022-12-16T03:33:36.172Z,15.4
2022-12-16T03:34:38.429Z,15.3
2022-12-16T03:35:40.619Z,15.5
2022-12-16T03:36:42.842Z,15.4
2022-12-16T03:37:45.059Z,15.4
2022-12-16T03:38:47.584Z,15.3
2022-12-16T03:39:50.059Z,15.3
2022-12-16T03:41:57.519Z,15.4
2022-12-16T03:43:00.090Z,15.5
2022-12-16T03:44:02.582Z,15.5
2022-12-16T03:45:05.060Z,15.4
2022-12-16T03:46:07.703Z,15.4
2022-12-16T03:47:10.558Z,15.3
2022-12-16T03:48:13.071Z,15.6
2022-12-16T03:49:15.285Z,15.3
2022-12-16T03:50:17.768Z,15.3
2022-12-16T03:51:20.242Z,15.5
2022-12-16T03:52:22.754Z,15.4
2022-12-16T03:53:24.956Z,15.6
2022-12-16T03:54:27.484Z,15.5
2022-12-16T03:55:29.945Z,15.4
2022-12-16T03:56:32.156Z,15.5
2022-12-16T03:57:34.644Z,15.5
2022-12-16T03:58:37.206Z,15.4
2022-12-16T03:59:39.401Z,15.5
2022-12-16T04:00:41.628Z,15.5
2022-12-16T04:01:44.181Z,15.6
2022-12-16T04:02:47.124Z,15.4
2022-12-16T04:03:50.494Z,15.5
2022-12-16T04:04:53.275Z,15.6
2022-12-16T04:05:55.497Z,15.4
2022-12-16T04:06:58.111Z,15.4
2022-12-16T04:08:02.830Z,15.5
2022-12-16T04:09:05.342Z,15.5
2022-12-16T04:10:07.838Z,15.5
2022-12-16T04:11:10.327Z,15.4
2022-12-16T04:12:12.787Z,15.2
2022-12-16T04:13:14.720Z,15.5
2022-12-16T04:14:17.277Z,15.4
2022-12-16T04:15:18.913Z,15.4
2022-12-16T04:16:21.118Z,15.3
2022-12-16T04:17:24.164Z,15.3
2022-12-16T04:18:26.643Z,15.3
2022-12-16T04:19:29.144Z,15.3
2022-12-16T04:20:31.340Z,15.4
2022-12-16T04:21:33.542Z,15.4
2022-12-16T04:22:36.037Z,15.2
2022-12-16T04:23:38.256Z,15.4
2022-12-16T04:24:40.758Z,15.3
2022-12-16T04:25:43.011Z,15.3
2022-12-16T04:26:45.259Z,15.4
2022-12-16T04:27:47.842Z,15.4
2022-12-16T04:28:50.316Z,15.3
2022-12-16T04:29:52.564Z,15.2
2022-12-16T04:30:56.195Z,15.3
2022-12-16T04:31:58.479Z,15.3
2022-12-16T04:33:00.709Z,15.3
2022-12-16T04:34:03.206Z,15.3
2022-12-16T04:35:05.469Z,15.3
2022-12-16T04:36:07.671Z,15.3
2022-12-16T04:37:10.162Z,15.3
2022-12-16T04:38:12.638Z,15.3
2022-12-16T04:39:15.142Z,15.2
2022-12-16T04:40:17.100Z,15.3
2022-12-16T04:41:19.818Z,15.3
2022-12-16T04:42:23.108Z,15.2
2022-12-16T04:43:26.327Z,15.3
2022-12-16T04:44:29.487Z,15.3
2022-12-16T04:45:32.288Z,15.3
2022-12-16T04:46:34.913Z,15.3
2022-12-16T04:47:37.287Z,15.3
2022-12-16T04:48:39.797Z,15.3
2022-12-16T04:49:41.436Z,15.3
2022-12-16T04:50:43.915Z,15.3
2022-12-16T04:51:46.405Z,15.2
2022-12-16T04:52:48.906Z,15.2
2022-12-16T04:53:50.860Z,15.3
2022-12-16T04:54:53.054Z,15.3
2022-12-16T04:57:00.611Z,15.3
2022-12-16T04:58:02.852Z,15.3
2022-12-16T04:59:05.346Z,15.2
2022-12-16T05:00:07.549Z,15.3
2022-12-16T05:01:10.283Z,15.3
2022-12-16T05:02:13.405Z,15.3
2022-12-16T05:03:16.719Z,15.3
2022-12-16T05:04:19.458Z,15.2
2022-12-16T05:05:21.949Z,15.3
2022-12-16T05:06:24.469Z,15.2
2022-12-16T05:07:26.428Z,15.2
2022-12-16T05:08:30.268Z,15.2
2022-12-16T05:09:32.481Z,15.3
2022-12-16T05:10:34.671Z,15.2
2022-12-16T05:11:37.172Z,15.3
2022-12-16T05:12:39.387Z,15.3
2022-12-16T05:13:41.901Z,15.2
2022-12-16T05:14:44.375Z,15.2
2022-12-16T05:15:46.928Z,15.2
2022-12-16T05:16:49.736Z,15.2
2022-12-16T05:17:52.228Z,15.2
2022-12-16T05:18:54.706Z,15.1
2022-12-16T05:19:56.669Z,15.2
2022-12-16T05:20:59.144Z,15.2
2022-12-16T05:22:01.656Z,15.2
2022-12-16T05:23:04.147Z,15.3
2022-12-16T05:24:06.628Z,15.2
2022-12-16T05:25:08.826Z,15.2
2022-12-16T05:26:10.752Z,15.2
2022-12-16T05:27:12.650Z,15.2
2022-12-16T05:28:15.162Z,15.2
2022-12-16T05:29:17.370Z,15.2
2022-12-16T05:30:19.308Z,15.2
2022-12-16T05:31:21.914Z,15.1
2022-12-16T05:32:24.588Z,15.2
2022-12-16T05:33:27.075Z,15.2
2022-12-16T05:34:29.554Z,15.2
2022-12-16T05:35:31.776Z,15.2
2022-12-16T05:36:33.986Z,15.2
2022-12-16T05:37:36.463Z,15.3
2022-12-16T05:38:38.668Z,15.3
2022-12-16T05:39:40.595Z,15.2
2022-12-16T05:40:43.078Z,15.2
2022-12-16T05:41:45.554Z,15.2
2022-12-16T05:42:47.739Z,15.2
2022-12-16T05:43:49.963Z,15.2
2022-12-16T05:44:52.500Z,15.2
2022-12-16T05:45:55.108Z,15.2
2022-12-16T05:46:58.142Z,15.2
2022-12-16T05:48:01.510Z,15.2
2022-12-16T05:49:03.426Z,15.2
2022-12-16T05:50:04.775Z,15.1
2022-12-16T05:51:07.003Z,15.2
2022-12-16T05:52:09.493Z,15.2
2022-12-16T05:53:11.404Z,15.3
2022-12-16T05:54:13.616Z,15.2
2022-12-16T05:55:16.106Z,15.2
2022-12-16T05:56:18.786Z,15.2
2022-12-16T05:57:20.718Z,15.2
2022-12-16T05:58:22.917Z,15.2
2022-12-16T05:59:25.429Z,15.1
2022-12-16T06:00:27.921Z,15.2
2022-12-16T06:01:30.117Z,15.2
2022-12-16T06:02:33.329Z,15.3
2022-12-16T06:03:38.027Z,15.2
2022-12-16T06:04:41.588Z,15.2
2022-12-16T06:05:43.794Z,15.2
2022-12-16T06:06:46.306Z,15.2
2022-12-16T06:07:48.782Z,15.2
2022-12-16T06:08:50.705Z,15.2
2022-12-16T06:10:57.894Z,15.2
2022-12-16T06:12:00.105Z,15.2
2022-12-16T06:13:02.279Z,15.2
2022-12-16T06:14:04.767Z,15.2
2022-12-16T06:15:07.276Z,15.1
2022-12-16T06:16:09.823Z,15.2
2022-12-16T06:17:12.665Z,15.2
2022-12-16T06:18:15.193Z,15.2
2022-12-16T06:19:17.728Z,15.2
2022-12-16T06:20:20.214Z,15.1
2022-12-16T06:21:22.439Z,15.2
2022-12-16T06:22:24.939Z,15.1
2022-12-16T06:23:27.148Z,15.2
2022-12-16T06:24:29.698Z,15.2
2022-12-16T06:25:32.192Z,15.1
2022-12-16T06:26:34.668Z,15.2
2022-12-16T06:27:37.161Z,15.2
2022-12-16T06:29:44.361Z,15.1
2022-12-16T06:30:46.991Z,15.1
2022-12-16T06:31:49.388Z,15.1
2022-12-16T06:32:51.655Z,15.2
2022-12-16T06:33:55.669Z,15.2
2022-12-16T06:34:58.224Z,15.2
2022-12-16T06:36:00.431Z,15
2022-12-16T06:37:02.911Z,15.2
2022-12-16T06:38:05.165Z,15.2
2022-12-16T06:39:07.655Z,15.1
2022-12-16T06:40:10.143Z,15.2
2022-12-16T06:41:12.621Z,15.2
2022-12-16T06:42:15.133Z,15.2
2022-12-16T06:43:17.337Z,15.2
2022-12-16T06:44:19.835Z,15.2
2022-12-16T06:45:22.059Z,15.2
2022-12-16T06:46:24.790Z,15.2
2022-12-16T06:47:27.114Z,15.2
2022-12-16T06:48:29.611Z,15.2
2022-12-16T06:49:32.080Z,15.2
2022-12-16T06:50:34.605Z,15.1
2022-12-16T06:51:36.813Z,15.1
2022-12-16T06:52:39.299Z,15.2
2022-12-16T06:53:41.610Z,15.2
2022-12-16T06:54:44.121Z,15.2
2022-12-16T06:55:46.314Z,15.1
2022-12-16T06:56:48.248Z,15.2
2022-12-16T06:57:50.715Z,15.2
2022-12-16T06:58:52.663Z,15.2
2022-12-16T06:59:55.138Z,15.2
2022-12-16T07:00:57.459Z,15.1
2022-12-16T07:02:00.698Z,15
2022-12-16T07:03:05.346Z,15.1
2022-12-16T07:04:08.133Z,15.2
2022-12-16T07:05:10.629Z,15.2
2022-12-16T07:06:12.859Z,15.1
2022-12-16T07:07:15.065Z,15.2
2022-12-16T07:08:17.537Z,15.1
2022-12-16T07:09:20.041Z,15.1
2022-12-16T07:10:22.514Z,15.2
2022-12-16T07:11:24.727Z,15.1
2022-12-16T07:12:27.135Z,15.2
2022-12-16T07:13:30.041Z,15.2
2022-12-16T07:14:34.208Z,15.1
2022-12-16T07:15:36.705Z,15
2022-12-16T07:16:39.097Z,15.2
2022-12-16T07:17:41.925Z,15.2
2022-12-16T07:18:44.143Z,15.1
2022-12-16T07:19:46.629Z,15.2
2022-12-16T07:20:49.141Z,15.1
2022-12-16T07:21:56.424Z,15
2022-12-16T07:24:03.619Z,15.1
2022-12-16T07:25:05.860Z,15.1
2022-12-16T07:26:08.077Z,15.1
2022-12-16T07:27:10.595Z,15.2
2022-12-16T07:29:17.520Z,15.1
2022-12-16T07:30:20.001Z,15.2
2022-12-16T07:31:22.363Z,15.2
2022-12-16T07:32:24.543Z,15.1
2022-12-16T07:33:26.892Z,15.2
2022-12-16T07:34:29.424Z,15.2
2022-12-16T07:35:38.524Z,15.2
2022-12-16T07:36:40.728Z,15.2
2022-12-16T07:37:43.411Z,15.1
2022-12-16T07:38:45.631Z,15
2022-12-16T07:40:52.841Z,15.2
2022-12-16T07:41:56.386Z,15
2022-12-16T07:42:58.590Z,15.2
2022-12-16T07:44:01.098Z,15.1
2022-12-16T07:45:03.309Z,15.1
2022-12-16T07:46:05.692Z,15.1
2022-12-16T07:47:08.906Z,15.1
2022-12-16T07:48:11.414Z,15.1
2022-12-16T07:49:13.659Z,15.1
2022-12-16T07:50:15.877Z,15.1
2022-12-16T07:51:17.271Z,15
2022-12-16T07:52:19.456Z,15.1
2022-12-16T07:53:23.701Z,15.1
2022-12-16T07:54:28.300Z,15.2
2022-12-16T07:55:30.782Z,15.1
2022-12-16T07:56:33.362Z,15.1
2022-12-16T07:57:35.578Z,15.2
2022-12-16T07:58:38.071Z,15.1
2022-12-16T07:59:40.304Z,15
2022-12-16T08:00:42.792Z,15.2
2022-12-16T08:01:45.325Z,15
2022-12-16T08:02:48.849Z,15.1
2022-12-16T08:03:53.394Z,15.2
2022-12-16T08:04:56.961Z,15.1
2022-12-16T08:05:59.475Z,15.2
2022-12-16T08:07:01.669Z,15.1
2022-12-16T08:08:03.868Z,15.1
2022-12-16T08:09:06.334Z,15
2022-12-16T08:10:09.155Z,15.1
2022-12-16T08:11:11.128Z,15.1
2022-12-16T08:12:13.555Z,15.2
2022-12-16T08:13:19.568Z,15.1
2022-12-16T08:14:21.851Z,15.2
2022-12-16T08:15:23.783Z,15.1
2022-12-16T08:16:26.435Z,15.2
2022-12-16T08:17:28.647Z,15.1
2022-12-16T08:18:30.308Z,15.1
2022-12-16T08:19:32.798Z,15.2
2022-12-16T08:20:34.749Z,15.1
2022-12-16T08:21:37.329Z,15.1
2022-12-16T08:22:39.814Z,15.2
2022-12-16T08:23:42.030Z,15.1
2022-12-16T08:25:49.301Z,15.2
2022-12-16T08:26:53.193Z,15.2
2022-12-16T08:27:57.426Z,15.2
2022-12-16T08:30:04.633Z,15
2022-12-16T08:31:07.065Z,15.2
2022-12-16T08:32:10.431Z,15.1
2022-12-16T08:34:17.351Z,15.2
2022-12-16T08:35:19.864Z,15.1
2022-12-16T08:36:22.119Z,15.1
2022-12-16T08:37:24.674Z,15.1
2022-12-16T08:38:27.170Z,15
2022-12-16T08:39:29.652Z,15.1
2022-12-16T08:41:36.628Z,15.2
2022-12-16T08:42:39.118Z,15.2
2022-12-16T08:43:41.631Z,15.1
2022-12-16T08:44:43.853Z,15.2
2022-12-16T08:45:46.594Z,15.1
2022-12-16T08:46:49.041Z,15.1
2022-12-16T08:47:51.506Z,15.1
2022-12-16T08:48:53.994Z,15.2
2022-12-16T08:51:03.363Z,15.2
2022-12-16T08:52:05.885Z,15.1
2022-12-16T08:53:08.391Z,15
2022-12-16T08:54:10.600Z,15.2
2022-12-16T08:55:12.821Z,15.1
2022-12-16T08:56:15.109Z,15.1
2022-12-16T08:57:17.054Z,15.1
2022-12-16T08:58:19.913Z,15.1
2022-12-16T08:59:22.132Z,15.2
2022-12-16T09:00:24.752Z,15.2
2022-12-16T09:01:27.316Z,15.2
2022-12-16T09:02:30.961Z,15.1
2022-12-16T09:03:35.374Z,15.2
2022-12-16T09:04:40.282Z,15.2
2022-12-16T09:05:42.772Z,15.1
2022-12-16T09:06:45.001Z,15.1
2022-12-16T09:07:47.519Z,15.1
2022-12-16T09:08:50.045Z,15.1
2022-12-16T09:09:52.402Z,15.1
2022-12-16T09:10:55.416Z,15
2022-12-16T09:11:57.811Z,15
2022-12-16T09:13:00.292Z,15.1
2022-12-16T09:14:02.770Z,15
2022-12-16T09:15:05.042Z,15.1
2022-12-16T09:16:07.691Z,15
2022-12-16T09:17:15.336Z,14.9
2022-12-16T09:18:17.549Z,15.2
2022-12-16T09:19:20.104Z,15
2022-12-16T09:20:22.588Z,15.2
2022-12-16T09:22:29.734Z,15.1
2022-12-16T09:23:32.949Z,15
2022-12-16T09:24:37.364Z,15
2022-12-16T09:25:39.558Z,15.1
2022-12-16T09:26:41.718Z,15
2022-12-16T09:27:44.931Z,15.1
2022-12-16T09:28:47.424Z,15.2
2022-12-16T09:29:49.936Z,15
2022-12-16T09:30:53.201Z,15.1
2022-12-16T09:31:58.281Z,15
2022-12-16T09:32:59.918Z,15
2022-12-16T09:34:01.873Z,15.1
2022-12-16T09:36:08.509Z,15.2
2022-12-16T09:37:10.739Z,15.1
2022-12-16T09:38:13.270Z,15.1
2022-12-16T09:39:15.785Z,15.1
2022-12-16T09:40:18.028Z,15.1
2022-12-16T09:41:20.239Z,15.1
2022-12-16T09:42:22.470Z,15
2022-12-16T09:43:25.009Z,15.2
2022-12-16T09:44:27.629Z,15
2022-12-16T09:45:30.330Z,15
2022-12-16T09:46:32.744Z,15.1
2022-12-16T09:47:35.370Z,15.1
2022-12-16T09:48:37.570Z,15.1
2022-12-16T09:49:39.477Z,15
2022-12-16T09:50:41.721Z,15.1
2022-12-16T09:51:44.222Z,15
2022-12-16T09:52:46.451Z,15.1
2022-12-16T09:53:48.639Z,15
2022-12-16T09:54:51.639Z,15
2022-12-16T09:55:56.799Z,15
2022-12-16T09:56:59.028Z,14.8
2022-12-16T09:58:01.514Z,15.1
2022-12-16T09:59:03.810Z,15
2022-12-16T10:00:06.293Z,15.2
2022-12-16T10:01:09.135Z,15
2022-12-16T10:02:11.990Z,15.2
2022-12-16T10:03:15.716Z,15.1
2022-12-16T10:04:19.450Z,14.9
2022-12-16T10:05:22.213Z,15.1
2022-12-16T10:06:24.700Z,15
2022-12-16T10:07:27.055Z,15
2022-12-16T10:08:29.271Z,15.1
2022-12-16T10:09:30.950Z,15.1
2022-12-16T10:10:33.452Z,15
2022-12-16T10:11:35.959Z,15.1
2022-12-16T10:12:38.439Z,15.1
2022-12-16T10:13:40.671Z,15
2022-12-16T10:14:43.280Z,15.1
2022-12-16T10:15:45.919Z,15.2
2022-12-16T10:16:48.737Z,15
2022-12-16T10:17:51.484Z,15.1
2022-12-16T10:18:56.562Z,15.1
2022-12-16T10:19:59.697Z,15
2022-12-16T10:21:06.458Z,15.2
2022-12-16T10:22:08.650Z,15.1
2022-12-16T10:23:11.317Z,15.1
2022-12-16T10:24:13.245Z,14.9
2022-12-16T10:26:20.754Z,15
2022-12-16T10:27:22.779Z,15
2022-12-16T10:28:25.344Z,15
2022-12-16T10:29:27.875Z,15
2022-12-16T10:30:30.432Z,15
2022-12-16T10:31:32.812Z,14.9
2022-12-16T10:32:35.632Z,15.1
2022-12-16T10:33:38.014Z,15.1
2022-12-16T10:34:39.935Z,15.1
2022-12-16T10:35:41.873Z,15.1
2022-12-16T10:36:44.106Z,15
2022-12-16T10:37:46.576Z,15.2
2022-12-16T10:38:49.080Z,15
2022-12-16T10:39:55.810Z,15.1
2022-12-16T10:40:58.029Z,15
2022-12-16T10:42:00.528Z,15
2022-12-16T10:43:03.036Z,15
2022-12-16T10:44:05.076Z,15
2022-12-16T10:45:07.367Z,15.1
2022-12-16T10:46:11.179Z,15.1
2022-12-16T10:47:14.051Z,15.1
2022-12-16T10:48:16.577Z,14.9
2022-12-16T10:49:19.249Z,14.9
2022-12-16T10:50:21.417Z,15.2
2022-12-16T10:51:23.914Z,15
2022-12-16T10:52:26.391Z,15.1
2022-12-16T10:53:28.892Z,15.1
2022-12-16T10:54:31.654Z,15.1
2022-12-16T10:55:33.889Z,15.1
2022-12-16T10:56:36.092Z,15.1
2022-12-16T10:57:38.448Z,15
2022-12-16T10:58:40.762Z,15.1
2022-12-16T10:59:42.686Z,15
2022-12-16T11:00:44.872Z,15.2
2022-12-16T11:01:47.816Z,15
2022-12-16T11:02:51.512Z,15.2
2022-12-16T11:03:55.307Z,15.1
2022-12-16T11:04:58.294Z,15.1
2022-12-16T11:06:00.780Z,15.1
2022-12-16T11:07:03.010Z,15.1
2022-12-16T11:08:05.507Z,14.9
2022-12-16T11:09:07.722Z,15
2022-12-16T11:10:09.683Z,15.1
2022-12-16T11:11:11.940Z,15.2
2022-12-16T11:12:14.151Z,15.1
2022-12-16T11:13:16.666Z,15.1
2022-12-16T11:14:19.169Z,15
2022-12-16T11:16:26.279Z,15.2
2022-12-16T11:17:28.932Z,15.1
2022-12-16T11:18:31.412Z,15.1
2022-12-16T11:19:33.645Z,15.1
2022-12-16T11:20:36.191Z,15.1
2022-12-16T11:21:38.681Z,15.1
2022-12-16T11:22:40.619Z,15.1
2022-12-16T11:23:42.555Z,15.2
2022-12-16T11:24:43.933Z,15.2
2022-12-16T11:25:46.133Z,15
2022-12-16T11:26:48.633Z,15.2
2022-12-16T11:27:51.112Z,15
2022-12-16T11:28:53.349Z,15.1
2022-12-16T11:29:56.892Z,15
2022-12-16T11:30:59.224Z,15.1
2022-12-16T11:32:02.426Z,15.1
2022-12-16T11:33:05.200Z,15
2022-12-16T11:34:07.404Z,15.1
2022-12-16T11:35:10.525Z,15.1
2022-12-16T11:36:13.130Z,15.2
2022-12-16T11:38:20.604Z,15.1
2022-12-16T11:39:22.811Z,15.1
2022-12-16T11:40:24.764Z,15
2022-12-16T11:41:26.968Z,15.1
2022-12-16T11:42:28.921Z,15.2
2022-12-16T11:43:32.361Z,15.1
2022-12-16T11:44:36.340Z,15.1
2022-12-16T11:45:38.851Z,15
2022-12-16T11:46:40.995Z,15
2022-12-16T11:47:43.562Z,15.2
2022-12-16T11:48:45.818Z,15
2022-12-16T11:49:48.320Z,15
2022-12-16T11:50:51.596Z,15.1
2022-12-16T11:53:01.967Z,15.1
2022-12-16T11:54:04.460Z,15.1
2022-12-16T11:55:07.089Z,15.2
2022-12-16T11:57:15.185Z,15.1
2022-12-16T11:58:17.693Z,15.2
2022-12-16T11:59:19.629Z,15.1
2022-12-16T12:00:22.144Z,15
2022-12-16T12:01:24.737Z,15.1
2022-12-16T12:02:27.220Z,15.1
2022-12-16T12:03:30.061Z,15.2
2022-12-16T12:04:34.840Z,15.2
2022-12-16T12:05:37.436Z,15.1
2022-12-16T12:06:39.922Z,15.1
2022-12-16T12:08:47.118Z,15.1
2022-12-16T12:09:49.510Z,15.2
2022-12-16T12:10:53.058Z,15.1
2022-12-16T12:11:59.030Z,15.1
2022-12-16T12:13:01.535Z,15.1
2022-12-16T12:14:03.471Z,15.1
2022-12-16T12:15:05.980Z,15
2022-12-16T12:16:08.415Z,15.1
2022-12-16T12:17:11.387Z,15.1
2022-12-16T12:18:13.878Z,14.9
2022-12-16T12:19:16.370Z,15.2
2022-12-16T12:20:18.666Z,15.1
2022-12-16T12:21:21.169Z,15.1
2022-12-16T12:22:23.379Z,15
2022-12-16T12:23:26.000Z,15.2
2022-12-16T12:24:28.213Z,15.1
2022-12-16T12:25:30.131Z,15
2022-12-16T12:26:32.364Z,15.1
2022-12-16T12:27:34.557Z,15.2
2022-12-16T12:28:37.044Z,15.2
2022-12-16T12:29:39.522Z,15
2022-12-16T12:30:41.722Z,15.1
2022-12-16T12:31:44.154Z,15.1
2022-12-16T12:32:46.963Z,15.1
2022-12-16T12:33:49.298Z,15.1
2022-12-16T12:34:53.139Z,15
2022-12-16T12:35:57.520Z,15.2
2022-12-16T12:37:00.018Z,15.2
2022-12-16T12:38:02.240Z,15.2
2022-12-16T12:39:04.762Z,15.1
2022-12-16T12:40:07.234Z,15
2022-12-16T12:41:10.305Z,15.1
2022-12-16T12:42:12.247Z,15.1
2022-12-16T12:43:14.476Z,15
2022-12-16T12:44:16.421Z,15.1
2022-12-16T12:45:18.649Z,15.1
2022-12-16T12:46:21.049Z,14.9
2022-12-16T12:47:23.473Z,15.1
2022-12-16T12:48:25.420Z,15
2022-12-16T12:49:27.917Z,15.2
2022-12-16T12:50:29.862Z,15.1
2022-12-16T12:51:32.206Z,15.2
2022-12-16T12:52:34.136Z,14.9
2022-12-16T12:53:37.020Z,15.1
2022-12-16T12:54:38.781Z,15.1
2022-12-16T12:55:41.275Z,15.1
2022-12-16T12:56:43.482Z,15.1
2022-12-16T12:57:45.397Z,15.1
2022-12-16T12:58:47.315Z,14.9
2022-12-16T12:59:49.550Z,15.1
2022-12-16T13:00:57.311Z,15.2
2022-12-16T13:02:00.382Z,15.1
2022-12-16T13:03:04.350Z,15
2022-12-16T13:04:07.576Z,15
2022-12-16T13:05:10.825Z,14.9
2022-12-16T13:06:13.042Z,15.1
2022-12-16T13:07:15.318Z,15.1
2022-12-16T13:08:18.006Z,15.2
2022-12-16T13:09:20.204Z,15.1
2022-12-16T13:10:22.832Z,15
2022-12-16T13:12:30.312Z,15.2
2022-12-16T13:13:33.035Z,15
2022-12-16T13:14:38.046Z,15.1
2022-12-16T13:15:40.545Z,15.1
2022-12-16T13:16:42.581Z,15.1
2022-12-16T13:17:45.052Z,15
2022-12-16T13:18:47.081Z,14.9
2022-12-16T13:19:49.740Z,15
2022-12-16T13:20:52.137Z,15.2
2022-12-16T13:21:59.342Z,15.1
2022-12-16T13:23:01.843Z,14.9
2022-12-16T13:24:04.206Z,15
2022-12-16T13:25:05.907Z,15.1
2022-12-16T13:26:08.236Z,15
2022-12-16T13:27:10.721Z,15.1
2022-12-16T13:28:12.916Z,15
2022-12-16T13:29:15.136Z,15.1
2022-12-16T13:30:17.361Z,15.1
2022-12-16T13:32:24.555Z,15.2
2022-12-16T13:33:26.217Z,15.1
2022-12-16T13:34:28.737Z,15.1
2022-12-16T13:35:30.975Z,15.1
2022-12-16T13:36:32.929Z,15.2
2022-12-16T13:37:35.141Z,15
2022-12-16T13:38:37.524Z,15.1
2022-12-16T13:39:39.728Z,15.2
2022-12-16T13:40:42.247Z,15
2022-12-16T13:41:44.600Z,14.9
2022-12-16T13:42:46.271Z,15
2022-12-16T13:43:48.212Z,15.1
2022-12-16T13:44:50.691Z,15.3
2022-12-16T13:45:53.074Z,15.2
2022-12-16T13:46:56.024Z,15
2022-12-16T13:47:58.538Z,15.2
2022-12-16T13:49:00.507Z,15.1
2022-12-16T13:50:02.737Z,15.2
2022-12-16T13:51:05.311Z,15.1
2022-12-16T13:52:07.216Z,15
2022-12-16T13:53:09.416Z,15
2022-12-16T13:54:11.676Z,15.2
2022-12-16T13:55:14.166Z,15.1
2022-12-16T13:56:21.936Z,15.2
2022-12-16T13:57:24.224Z,15
2022-12-16T13:58:26.443Z,15
2022-12-16T13:59:29.221Z,15.1
2022-12-16T14:01:37.337Z,15.1
2022-12-16T14:02:40.916Z,15.1
2022-12-16T14:03:43.574Z,15.1
2022-12-16T14:04:46.213Z,15.1
2022-12-16T14:05:48.180Z,15
2022-12-16T14:06:50.742Z,15
2022-12-16T14:07:52.963Z,15
2022-12-16T14:08:55.167Z,15.2
2022-12-16T14:09:57.704Z,15
2022-12-16T14:10:59.695Z,15.1
2022-12-16T14:12:02.206Z,15.1
2022-12-16T14:13:04.699Z,15
2022-12-16T14:14:07.191Z,15.1
2022-12-16T14:15:09.694Z,15
2022-12-16T14:16:11.690Z,15.2
2022-12-16T14:17:14.457Z,15
2022-12-16T14:18:16.409Z,15.2
2022-12-16T14:19:18.891Z,15.1
2022-12-16T14:20:21.379Z,15.2
2022-12-16T14:21:23.657Z,15.1
2022-12-16T14:22:25.593Z,15.1
2022-12-16T14:24:32.783Z,15
2022-12-16T14:25:35.101Z,15.1
2022-12-16T14:26:37.587Z,15
2022-12-16T14:27:39.802Z,15.2
2022-12-16T14:28:41.549Z,15
2022-12-16T14:29:43.769Z,15.1